Haskell, NJ (07420)

2:56 PM EST on February 06, 2016 (GMT -0500)
Bloomingdale | | Change Station
CLOSE
Current Station
Personal Weather Station
Location: Bloomingdale, NJ
Elevation: 466 ft
Nearby Weather Stations

Elev 466 ft 41.01 °N, 74.33 °W | Updated 60 seconds ago

Partly Cloudy
Partly Cloudy
39.9 °F
Feels Like 38 °F
N
3.1
Wind Variable Wind from SW
Gusts 5.4 mph

Today
High -- | Low -- °F
--% Chance of Precip.
Yesterday
High -- | Low -- °F
Precip. -- in
Pressure 30.32 in
Visibility 10.0 miles
Clouds Clear
Windchill 38 °F
Dew Point 12 °F
Humidity 32%
Rainfall 0.02 in
Snow Depth Not available.
7:03 AM 5:19 PM
Waning Crescent, 4% visible
METAR KCDW 061953Z 23004KT 10SM CLR 04/M09 A3030 RMK AO2 SLP266 T00441094
Pressure 30.32 in
Visibility 10.0 miles
Clouds Clear
Windchill 38 °F
Dew Point 12 °F
Humidity 32%
Rainfall 0.02 in
Snow Depth Not available.
7:03 AM 5:19 PM
Waning Crescent, 4% visible
METAR KCDW 061953Z 23004KT 10SM CLR 04/M09 A3030 RMK AO2 SLP266 T00441094

10-Day Weather Forecast

Almanac

Astronomy

Feb. 06, 2016 Rise Set
Actual Time
Civil Twilight
Nautical Twilight
Astronomical Twilight
Moon
Length of Visible Light
Length of Day
Tomorrow will be .
, % of the Moon is Illuminated

Today's Extremes

State Highs State Lows

Community

WunderPhotos

Upload Photos

1,891,037 photos uploaded!

WunderBlog® & News

Nearby

Air Quality

  Air Quality AQ Index Pollutant
Not available.

Snow Depth

Station Depth Elevation

Earthquake Activity

City Distance Mag. Time & Date
Minimum magnitude displayed is 2.5.

Coastal Water Temperatures

Place Temperature

Stations

Nearby Weather Stations

Station Location Temp. Windchill Dew Point Humidity Wind Precip. Elev Updated Type
                   

Watches & Warnings

There are currently no watches in effect.